Airfield :
LOGIN :

Register | Disclaimer

   EN    FR    IT 

 










Legend :    VFR   Marginal VFR   IFR   Intensive IFR   Very Intensive IFR
Visi :
Ceiling :
>= 8 km
>= 3000ft
5 to 8 km
1000 to 3000 ft
1500m to 5 km
500 to 1000 ft
800 to 1500m
200 to 500 ft
< 800m
< 200 ft
Symbols :   Thunderstorms  Fog  Heavy snow  Heavy precipitations  Wind > 20 kt
SIGMETs :     Misc.  Thunderstorms  Icing  Turbulence  Mountain Waves  Volcanic Ashes







- Airport Elevation : 49 ft
- IATA code : GLZ


EHGR - Gilze-Rijen Airbase

CURRENT METAR :
  • 240625Z AUTO 23004KT 220V290 9999 FEW084 17/08 Q1015 BLU

EXPIRED METARs :
  • 240555Z AUTO 24003KT 220V290 9999 BKN075 OVC083 15/09 Q1015 BLU
  • 240525Z AUTO VRB02KT 9999 OVC082 14/09 Q1015 BLU RMK TS INFO NOT AVBL
  • 240455Z AUTO 20001KT 9999 NCD 11/08 Q1015 BLU
  • 240425Z AUTO VRB02KT 9999 OVC085 10/08 Q1014 BLU
  • 240355Z AUTO VRB01KT 9999 FEW084 10/08 Q1014 BLU

TAF TAF EHGR
Valid from the 24 at 05:00 until the 24 at 17:00 UTC


240439Z 2405/2417 VRB02KT CAVOK
BECMG 2405/2407 25006KT
BECMG 2411/2413 32010KT
TEMPO 2412/2417 33011G24KT
No reported NOTAMs for that airfield.



MET'MAP, your aeronautical weather chart ! - Copyright ORBIFLY December 2007 - Disclaimer

ORBIFLY MET'MAP TEAM :

Programming & Development : Alexandra Zaïnal
Concept & Development : Baudouin d'Aumeries
Co-Development & Prog : Marc-Olivier Méhu
Technical & hardware support : Manuel Goepfert

Contact : metmap@orbifly.com




SOURCES & CREDITS :

   NOAA